createdAt,value
2023-04-09T00:01:29.390Z,67.54
2023-04-09T00:06:32.458Z,68.46
2023-04-09T00:11:35.671Z,69.11
2023-04-09T00:16:38.736Z,69.55
2023-04-09T00:21:41.789Z,70.48
2023-04-09T00:26:44.894Z,70.94
2023-04-09T00:31:47.867Z,71.06
2023-04-09T00:36:50.919Z,71.41
2023-04-09T00:42:00.056Z,71.31
2023-04-09T00:47:03.774Z,71.41
2023-04-09T00:52:07.813Z,70.94
2023-04-09T00:57:12.598Z,70.91
2023-04-09T01:02:15.884Z,71.59
2023-04-09T01:07:41.301Z,71.33
2023-04-09T01:13:06.016Z,71.87
2023-04-09T01:18:31.255Z,73.39
2023-04-09T01:23:46.856Z,73.62
2023-04-09T01:28:54.923Z,69.72
2023-04-09T01:34:00.445Z,69.93
2023-04-09T01:39:04.114Z,71.20
2023-04-09T01:44:10.008Z,71.99
2023-04-09T01:49:13.502Z,72.43
2023-04-09T01:54:17.068Z,72.21
2023-04-09T01:59:20.080Z,72.39
2023-04-09T02:04:32.813Z,74.47
2023-04-09T02:09:39.506Z,73.36
2023-04-09T02:14:44.440Z,71.50
2023-04-09T02:19:48.296Z,71.80
2023-04-09T02:24:51.193Z,72.01
2023-04-09T02:29:54.010Z,72.26
2023-04-09T02:34:57.000Z,72.64
2023-04-09T02:39:59.898Z,73.74
2023-04-09T02:45:02.706Z,74.29
2023-04-09T02:50:06.580Z,74.32
2023-04-09T02:55:09.646Z,75.89
2023-04-09T03:00:13.492Z,76.23
2023-04-09T03:05:16.479Z,77.51
2023-04-09T03:10:19.579Z,77.48
2023-04-09T03:15:22.489Z,77.32
2023-04-09T03:20:25.699Z,76.35
2023-04-09T03:25:28.705Z,74.44
2023-04-09T03:30:31.711Z,73.45
2023-04-09T03:35:34.659Z,74.20
2023-04-09T03:40:37.829Z,77.03
2023-04-09T03:45:41.208Z,78.27
2023-04-09T03:50:44.145Z,79.41
2023-04-09T03:55:47.156Z,80.03
2023-04-09T04:00:50.464Z,80.18
2023-04-09T04:05:53.471Z,80.09
2023-04-09T04:10:56.484Z,80.40
2023-04-09T04:15:59.442Z,80.21
2023-04-09T04:21:02.904Z,80.08
2023-04-09T04:26:11.982Z,80.41
2023-04-09T04:31:15.772Z,80.28
2023-04-09T04:36:18.777Z,80.72
2023-04-09T04:41:21.786Z,81.01
2023-04-09T04:46:24.996Z,80.72
2023-04-09T04:51:28.001Z,80.86
2023-04-09T04:56:31.118Z,79.59
2023-04-09T05:01:34.164Z,80.49
2023-04-09T05:06:37.331Z,81.63
2023-04-09T05:11:40.550Z,81.93
2023-04-09T05:16:43.685Z,82.20
2023-04-09T05:21:47.454Z,82.67
2023-04-09T05:26:50.636Z,82.52
2023-04-09T05:31:53.595Z,82.51
2023-04-09T05:36:56.702Z,81.97
2023-04-09T05:41:59.812Z,81.69
2023-04-09T05:47:03.413Z,82.05
2023-04-09T05:52:06.446Z,82.19
2023-04-09T05:57:09.342Z,82.42
2023-04-09T06:02:12.416Z,82.93
2023-04-09T06:07:15.457Z,82.92
2023-04-09T06:12:18.360Z,82.45
2023-04-09T06:17:21.488Z,82.55
2023-04-09T06:22:24.588Z,82.65
2023-04-09T06:27:28.002Z,82.51
2023-04-09T06:32:33.604Z,82.51
2023-04-09T06:37:41.097Z,82.27
2023-04-09T06:42:44.288Z,82.12
2023-04-09T06:47:47.587Z,82.19
2023-04-09T06:52:51.734Z,82.14
2023-04-09T06:57:54.941Z,81.91
2023-04-09T07:02:58.054Z,81.67
2023-04-09T07:08:01.581Z,81.51
2023-04-09T07:13:04.699Z,81.14
2023-04-09T07:18:08.303Z,80.76
2023-04-09T07:23:12.238Z,80.05
2023-04-09T07:28:15.643Z,80.27
2023-04-09T07:33:18.749Z,80.36
2023-04-09T07:38:21.862Z,80.19
2023-04-09T07:43:24.869Z,80.50
2023-04-09T07:48:28.364Z,80.19
2023-04-09T07:53:31.498Z,80.05
2023-04-09T07:58:34.610Z,79.21
2023-04-09T08:03:37.992Z,78.79
2023-04-09T08:08:41.954Z,79.28
2023-04-09T08:13:45.058Z,79.49
2023-04-09T08:18:48.068Z,79.74
2023-04-09T08:23:51.482Z,79.37
2023-04-09T08:28:54.880Z,79.09
2023-04-09T08:33:58.419Z,79.08
2023-04-09T08:39:02.350Z,78.79
2023-04-09T08:44:05.450Z,77.53
2023-04-09T08:49:10.379Z,76.79
2023-04-09T08:54:20.178Z,75.80
2023-04-09T08:59:23.384Z,75.40
2023-04-09T09:04:45.433Z,74.21
2023-04-09T09:10:07.322Z,73.49
2023-04-09T09:15:28.769Z,72.40
2023-04-09T09:20:31.828Z,72.04
2023-04-09T09:25:43.737Z,71.44
2023-04-09T09:30:48.615Z,70.79
2023-04-09T09:35:54.642Z,66.05
2023-04-09T09:40:58.457Z,62.30
2023-04-09T09:46:02.688Z,60.49
2023-04-09T09:51:14.143Z,59.47
2023-04-09T09:56:22.703Z,60.01
2023-04-09T10:01:28.151Z,62.31
2023-04-09T10:06:34.282Z,59.83
2023-04-09T10:11:38.284Z,59.64
2023-04-09T10:16:42.019Z,62.70
2023-04-09T10:21:54.834Z,60.62
2023-04-09T10:27:10.414Z,59.90
2023-04-09T10:32:21.249Z,62.87
2023-04-09T10:37:28.813Z,60.70
2023-04-09T10:42:41.955Z,58.86
2023-04-09T10:47:46.536Z,61.33
2023-04-09T10:52:57.761Z,60.65
2023-04-09T10:58:00.908Z,56.83
2023-04-09T11:03:06.118Z,61.21
2023-04-09T11:08:11.793Z,61.05
2023-04-09T11:13:17.110Z,59.02
2023-04-09T11:18:22.598Z,62.16
2023-04-09T11:23:26.627Z,60.67
2023-04-09T11:28:29.715Z,57.37
2023-04-09T11:33:34.474Z,58.65
2023-04-09T11:38:39.070Z,60.65
2023-04-09T11:43:42.198Z,61.48
2023-04-09T11:48:45.606Z,62.29
2023-04-09T11:53:49.861Z,61.55
2023-04-09T11:58:54.955Z,57.61
2023-04-09T12:03:58.070Z,59.40
2023-04-09T12:09:01.435Z,61.56
2023-04-09T12:14:05.724Z,62.20
2023-04-09T12:19:09.946Z,58.23
2023-04-09T12:24:13.226Z,58.34
2023-04-09T12:29:18.814Z,59.43
2023-04-09T12:34:21.996Z,60.80
2023-04-09T12:39:25.409Z,60.42
2023-04-09T12:44:28.420Z,61.78
2023-04-09T12:49:31.428Z,62.03
2023-04-09T12:54:34.741Z,61.68
2023-04-09T12:59:37.742Z,61.93
2023-04-09T13:04:41.601Z,61.28
2023-04-09T13:09:46.072Z,61.31
2023-04-09T13:14:49.735Z,61.30
2023-04-09T13:19:52.913Z,60.64
2023-04-09T13:24:55.956Z,59.27
2023-04-09T13:29:58.958Z,58.73
2023-04-09T13:35:02.169Z,56.81
2023-04-09T13:40:06.106Z,56.96
2023-04-09T13:45:09.579Z,56.88
2023-04-09T13:50:13.971Z,55.35
2023-04-09T13:55:16.962Z,54.92
2023-04-09T14:00:20.993Z,56.60
2023-04-09T14:05:24.105Z,56.50
2023-04-09T14:10:27.800Z,54.92
2023-04-09T14:15:30.949Z,52.49
2023-04-09T14:20:35.169Z,51.64
2023-04-09T14:25:38.584Z,52.79
2023-04-09T14:30:42.409Z,54.03
2023-04-09T14:35:45.541Z,56.94
2023-04-09T14:40:48.639Z,58.47
2023-04-09T14:45:52.043Z,59.23
2023-04-09T14:50:55.261Z,59.43
2023-04-09T14:55:58.260Z,59.62
2023-04-09T15:01:01.348Z,60.13
2023-04-09T15:06:04.796Z,60.46
2023-04-09T15:11:08.827Z,60.72
2023-04-09T15:16:20.587Z,61.16
2023-04-09T15:21:24.158Z,61.49
2023-04-09T15:26:27.555Z,61.46
2023-04-09T15:31:31.043Z,61.34
2023-04-09T15:36:34.877Z,61.51
2023-04-09T15:41:38.302Z,61.55
2023-04-09T15:46:41.231Z,61.74
2023-04-09T15:51:44.249Z,61.92
2023-04-09T15:56:47.256Z,61.85
2023-04-09T16:01:50.793Z,61.94
2023-04-09T16:06:55.619Z,61.98
2023-04-09T16:11:58.725Z,62.63
2023-04-09T16:17:01.717Z,59.62
2023-04-09T16:22:05.046Z,58.74
2023-04-09T16:27:08.236Z,60.82
2023-04-09T16:32:11.419Z,62.40
2023-04-09T16:37:14.518Z,61.00
2023-04-09T16:42:17.585Z,58.76
2023-04-09T16:47:20.873Z,61.30
2023-04-09T16:52:24.515Z,63.50
2023-04-09T16:57:27.419Z,59.90
2023-04-09T17:02:30.957Z,57.14
2023-04-09T17:07:34.144Z,60.90
2023-04-09T17:12:38.239Z,63.79
2023-04-09T17:17:41.331Z,62.62
2023-04-09T17:22:44.503Z,58.08
2023-04-09T17:27:47.603Z,59.34
2023-04-09T17:32:51.343Z,60.83
2023-04-09T17:37:55.156Z,66.65
2023-04-09T17:42:58.384Z,62.18
2023-04-09T17:48:01.401Z,59.26
2023-04-09T17:53:04.586Z,61.42
2023-04-09T17:58:07.487Z,65.19
2023-04-09T18:03:12.487Z,61.39
2023-04-09T18:08:15.969Z,59.70
2023-04-09T18:13:19.081Z,61.82
2023-04-09T18:18:22.186Z,67.38
2023-04-09T18:23:27.130Z,64.33
2023-04-09T18:28:30.139Z,59.70
2023-04-09T18:33:33.146Z,60.59
2023-04-09T18:38:37.177Z,63.35
2023-04-09T18:43:40.280Z,60.35
2023-04-09T18:48:47.309Z,61.57
2023-04-09T18:53:53.137Z,63.93
2023-04-09T18:58:56.580Z,62.38
2023-04-09T19:03:59.681Z,59.65
2023-04-09T19:09:04.630Z,58.02
2023-04-09T19:14:07.656Z,60.10
2023-04-09T19:19:11.972Z,65.62
2023-04-09T19:24:15.096Z,62.81
2023-04-09T19:29:18.207Z,60.77
2023-04-09T19:34:21.965Z,57.28
2023-04-09T19:39:24.940Z,62.25
2023-04-09T19:44:28.160Z,61.65
2023-04-09T19:49:31.264Z,58.80
2023-04-09T19:54:35.202Z,59.25
2023-04-09T19:59:40.131Z,63.09
2023-04-09T20:04:43.356Z,62.30
2023-04-09T20:09:47.162Z,59.76
2023-04-09T20:14:50.289Z,62.26
2023-04-09T20:19:55.544Z,62.50
2023-04-09T20:25:00.142Z,59.87
2023-04-09T20:30:03.784Z,63.51
2023-04-09T20:35:08.498Z,61.89
2023-04-09T20:40:12.443Z,60.23
2023-04-09T20:45:15.994Z,62.70
2023-04-09T20:50:19.704Z,62.94
2023-04-09T20:55:22.623Z,61.81
2023-04-09T21:00:25.842Z,59.41
2023-04-09T21:05:29.149Z,61.09
2023-04-09T21:10:32.152Z,63.32
2023-04-09T21:15:35.578Z,61.05
2023-04-09T21:20:46.262Z,59.34
2023-04-09T21:25:49.481Z,63.31
2023-04-09T21:30:52.752Z,61.00
2023-04-09T21:35:56.052Z,59.60
2023-04-09T21:41:00.145Z,63.16
2023-04-09T21:46:03.423Z,64.38
2023-04-09T21:51:10.712Z,61.76
2023-04-09T21:56:13.672Z,59.42
2023-04-09T22:01:26.482Z,57.32
2023-04-09T22:06:32.406Z,61.63
2023-04-09T22:11:35.793Z,63.29
2023-04-09T22:16:39.005Z,59.96
2023-04-09T22:21:42.235Z,62.24
2023-04-09T22:26:46.933Z,62.85
2023-04-09T22:31:49.862Z,59.91
2023-04-09T22:36:52.980Z,61.71
2023-04-09T22:41:56.381Z,63.39
2023-04-09T22:46:59.455Z,60.87
2023-04-09T22:52:02.511Z,59.36
2023-04-09T22:57:05.912Z,62.81
2023-04-09T23:02:09.141Z,64.89
2023-04-09T23:07:12.850Z,61.66
2023-04-09T23:12:15.746Z,58.04
2023-04-09T23:17:19.171Z,60.36
2023-04-09T23:22:22.379Z,67.71
2023-04-09T23:27:28.764Z,60.46
2023-04-09T23:32:31.884Z,55.45
2023-04-09T23:37:34.879Z,60.64
2023-04-09T23:42:38.367Z,65.50
2023-04-09T23:47:41.418Z,63.35
2023-04-09T23:52:49.040Z,59.89
2023-04-09T23:57:52.024Z,57.55
